sensor_id;sensor_type;location;lat;lon;timestamp;P1;durP1;ratioP1;P2;durP2;ratioP2
33347;SDS011;19707;51.158;17.124;2023-11-21T00:02:23;6.20;;;4.30;;
33347;SDS011;19707;51.158;17.124;2023-11-21T00:22:31;10.30;;;5.70;;
33347;SDS011;19707;51.158;17.124;2023-11-21T00:25:37;10.80;;;5.30;;
33347;SDS011;19707;51.158;17.124;2023-11-21T00:28:39;12.00;;;5.50;;
33347;SDS011;19707;51.158;17.124;2023-11-21T00:31:41;11.00;;;5.10;;
33347;SDS011;19707;51.158;17.124;2023-11-21T00:34:44;13.10;;;4.50;;
33347;SDS011;19707;51.158;17.124;2023-11-21T00:37:46;6.90;;;3.80;;
33347;SDS011;19707;51.158;17.124;2023-11-21T00:40:49;9.80;;;4.80;;
33347;SDS011;19707;51.158;17.124;2023-11-21T00:43:51;8.80;;;4.40;;
33347;SDS011;19707;51.158;17.124;2023-11-21T00:46:53;8.10;;;4.20;;
33347;SDS011;19707;51.158;17.124;2023-11-21T00:49:59;10.10;;;4.20;;
33347;SDS011;19707;51.158;17.124;2023-11-21T00:53:01;8.80;;;4.30;;
33347;SDS011;19707;51.158;17.124;2023-11-21T00:56:04;8.50;;;5.00;;
33347;SDS011;19707;51.158;17.124;2023-11-21T00:59:06;13.50;;;4.30;;
33347;SDS011;19707;51.158;17.124;2023-11-21T01:02:08;7.70;;;4.00;;
33347;SDS011;19707;51.158;17.124;2023-11-21T01:05:12;9.40;;;4.10;;
33347;SDS011;19707;51.158;17.124;2023-11-21T01:08:15;11.50;;;4.80;;
33347;SDS011;19707;51.158;17.124;2023-11-21T01:11:17;12.20;;;4.40;;
33347;SDS011;19707;51.158;17.124;2023-11-21T01:14:19;13.10;;;4.80;;
33347;SDS011;19707;51.158;17.124;2023-11-21T01:17:21;6.40;;;4.30;;
33347;SDS011;19707;51.158;17.124;2023-11-21T01:20:24;8.50;;;5.00;;
33347;SDS011;19707;51.158;17.124;2023-11-21T01:23:26;9.30;;;4.70;;
33347;SDS011;19707;51.158;17.124;2023-11-21T01:26:28;10.20;;;5.10;;
33347;SDS011;19707;51.158;17.124;2023-11-21T01:29:31;13.40;;;4.70;;
33347;SDS011;19707;51.158;17.124;2023-11-21T01:32:33;7.20;;;4.40;;
33347;SDS011;19707;51.158;17.124;2023-11-21T01:35:36;9.20;;;4.80;;
33347;SDS011;19707;51.158;17.124;2023-11-21T01:38:38;10.40;;;4.90;;
33347;SDS011;19707;51.158;17.124;2023-11-21T01:41:40;9.60;;;4.40;;
33347;SDS011;19707;51.158;17.124;2023-11-21T01:44:42;11.00;;;5.20;;
33347;SDS011;19707;51.158;17.124;2023-11-21T01:47:44;11.40;;;4.70;;
33347;SDS011;19707;51.158;17.124;2023-11-21T01:50:47;7.60;;;4.50;;
33347;SDS011;19707;51.158;17.124;2023-11-21T01:53:50;8.80;;;4.30;;
33347;SDS011;19707;51.158;17.124;2023-11-21T01:56:52;9.40;;;4.50;;
33347;SDS011;19707;51.158;17.124;2023-11-21T01:59:54;8.40;;;4.20;;
33347;SDS011;19707;51.158;17.124;2023-11-21T02:02:57;10.70;;;4.40;;
33347;SDS011;19707;51.158;17.124;2023-11-21T02:06:01;10.60;;;4.80;;
33347;SDS011;19707;51.158;17.124;2023-11-21T02:09:03;11.60;;;4.40;;
33347;SDS011;19707;51.158;17.124;2023-11-21T02:12:06;9.90;;;4.10;;
33347;SDS011;19707;51.158;17.124;2023-11-21T02:15:10;8.90;;;4.00;;
33347;SDS011;19707;51.158;17.124;2023-11-21T02:18:16;9.50;;;4.10;;
33347;SDS011;19707;51.158;17.124;2023-11-21T02:21:19;7.60;;;4.30;;
33347;SDS011;19707;51.158;17.124;2023-11-21T02:24:21;6.10;;;4.20;;
33347;SDS011;19707;51.158;17.124;2023-11-21T02:27:24;7.20;;;4.30;;
33347;SDS011;19707;51.158;17.124;2023-11-21T02:30:27;7.70;;;4.00;;
33347;SDS011;19707;51.158;17.124;2023-11-21T02:33:29;9.50;;;3.90;;
33347;SDS011;19707;51.158;17.124;2023-11-21T02:36:35;7.30;;;4.10;;
33347;SDS011;19707;51.158;17.124;2023-11-21T02:39:37;8.00;;;4.20;;
33347;SDS011;19707;51.158;17.124;2023-11-21T02:42:39;8.20;;;3.90;;
33347;SDS011;19707;51.158;17.124;2023-11-21T02:45:42;7.10;;;3.60;;
33347;SDS011;19707;51.158;17.124;2023-11-21T02:48:44;10.20;;;3.60;;
33347;SDS011;19707;51.158;17.124;2023-11-21T02:51:46;8.00;;;3.90;;
33347;SDS011;19707;51.158;17.124;2023-11-21T02:54:49;7.40;;;3.70;;
33347;SDS011;19707;51.158;17.124;2023-11-21T02:57:51;8.50;;;3.70;;
33347;SDS011;19707;51.158;17.124;2023-11-21T03:00:53;6.20;;;4.30;;
33347;SDS011;19707;51.158;17.124;2023-11-21T03:03:56;7.30;;;4.10;;
33347;SDS011;19707;51.158;17.124;2023-11-21T03:06:59;11.20;;;4.60;;
33347;SDS011;19707;51.158;17.124;2023-11-21T03:10:01;8.90;;;4.80;;
33347;SDS011;19707;51.158;17.124;2023-11-21T03:13:03;7.70;;;4.70;;
33347;SDS011;19707;51.158;17.124;2023-11-21T03:16:09;10.00;;;5.30;;
33347;SDS011;19707;51.158;17.124;2023-11-21T03:19:12;8.40;;;5.30;;
33347;SDS011;19707;51.158;17.124;2023-11-21T03:22:15;8.50;;;5.30;;
33347;SDS011;19707;51.158;17.124;2023-11-21T03:25:17;11.00;;;6.10;;
33347;SDS011;19707;51.158;17.124;2023-11-21T03:28:19;11.20;;;6.10;;
33347;SDS011;19707;51.158;17.124;2023-11-21T03:31:21;9.60;;;5.60;;
33347;SDS011;19707;51.158;17.124;2023-11-21T03:34:24;11.60;;;6.30;;
33347;SDS011;19707;51.158;17.124;2023-11-21T03:37:29;12.10;;;6.50;;
33347;SDS011;19707;51.158;17.124;2023-11-21T03:40:32;10.70;;;6.80;;
33347;SDS011;19707;51.158;17.124;2023-11-21T03:43:34;15.20;;;7.30;;
33347;SDS011;19707;51.158;17.124;2023-11-21T03:46:36;14.40;;;7.30;;
33347;SDS011;19707;51.158;17.124;2023-11-21T03:49:39;17.10;;;7.50;;
33347;SDS011;19707;51.158;17.124;2023-11-21T03:52:41;15.50;;;7.80;;
33347;SDS011;19707;51.158;17.124;2023-11-21T03:55:43;12.50;;;7.50;;
33347;SDS011;19707;51.158;17.124;2023-11-21T03:58:45;15.30;;;8.30;;
33347;SDS011;19707;51.158;17.124;2023-11-21T04:01:47;15.00;;;7.70;;
33347;SDS011;19707;51.158;17.124;2023-11-21T04:04:48;14.60;;;7.30;;
33347;SDS011;19707;51.158;17.124;2023-11-21T04:07:50;11.50;;;7.50;;
33347;SDS011;19707;51.158;17.124;2023-11-21T04:10:52;14.00;;;8.00;;
33347;SDS011;19707;51.158;17.124;2023-11-21T04:13:55;15.60;;;8.30;;
33347;SDS011;19707;51.158;17.124;2023-11-21T04:16:57;14.60;;;7.80;;
33347;SDS011;19707;51.158;17.124;2023-11-21T04:19:59;13.10;;;6.70;;
33347;SDS011;19707;51.158;17.124;2023-11-21T04:23:01;9.80;;;6.80;;
33347;SDS011;19707;51.158;17.124;2023-11-21T04:26:03;13.90;;;6.90;;
33347;SDS011;19707;51.158;17.124;2023-11-21T04:29:05;12.80;;;7.20;;
33347;SDS011;19707;51.158;17.124;2023-11-21T04:32:07;11.30;;;7.70;;
33347;SDS011;19707;51.158;17.124;2023-11-21T04:35:09;12.80;;;7.70;;
33347;SDS011;19707;51.158;17.124;2023-11-21T04:38:11;10.80;;;6.80;;
33347;SDS011;19707;51.158;17.124;2023-11-21T04:41:13;7.20;;;5.90;;
33347;SDS011;19707;51.158;17.124;2023-11-21T04:44:15;13.70;;;6.60;;
33347;SDS011;19707;51.158;17.124;2023-11-21T04:47:18;10.90;;;6.40;;
33347;SDS011;19707;51.158;17.124;2023-11-21T04:50:21;12.30;;;6.80;;
33347;SDS011;19707;51.158;17.124;2023-11-21T04:53:24;11.40;;;6.10;;
33347;SDS011;19707;51.158;17.124;2023-11-21T04:56:26;10.80;;;6.80;;
33347;SDS011;19707;51.158;17.124;2023-11-21T04:59:28;12.90;;;6.30;;
33347;SDS011;19707;51.158;17.124;2023-11-21T05:02:30;9.80;;;6.00;;
33347;SDS011;19707;51.158;17.124;2023-11-21T05:05:33;10.20;;;5.70;;
33347;SDS011;19707;51.158;17.124;2023-11-21T05:08:39;10.40;;;5.90;;
33347;SDS011;19707;51.158;17.124;2023-11-21T05:11:41;10.90;;;5.40;;
33347;SDS011;19707;51.158;17.124;2023-11-21T05:14:43;12.90;;;6.00;;
33347;SDS011;19707;51.158;17.124;2023-11-21T05:17:45;9.80;;;5.30;;
33347;SDS011;19707;51.158;17.124;2023-11-21T05:20:47;10.30;;;5.30;;
33347;SDS011;19707;51.158;17.124;2023-11-21T05:23:49;9.70;;;5.00;;
33347;SDS011;19707;51.158;17.124;2023-11-21T05:26:51;12.60;;;5.80;;
33347;SDS011;19707;51.158;17.124;2023-11-21T05:29:53;7.90;;;5.10;;
33347;SDS011;19707;51.158;17.124;2023-11-21T05:32:55;11.10;;;5.00;;
33347;SDS011;19707;51.158;17.124;2023-11-21T05:35:57;8.40;;;4.90;;
33347;SDS011;19707;51.158;17.124;2023-11-21T05:38:59;7.70;;;5.40;;
33347;SDS011;19707;51.158;17.124;2023-11-21T05:42:01;9.50;;;5.50;;
33347;SDS011;19707;51.158;17.124;2023-11-21T05:45:03;11.00;;;6.60;;
33347;SDS011;19707;51.158;17.124;2023-11-21T05:48:11;9.70;;;6.70;;
33347;SDS011;19707;51.158;17.124;2023-11-21T05:51:14;9.30;;;6.50;;
33347;SDS011;19707;51.158;17.124;2023-11-21T05:54:16;10.00;;;6.50;;
33347;SDS011;19707;51.158;17.124;2023-11-21T05:57:18;10.80;;;6.90;;
33347;SDS011;19707;51.158;17.124;2023-11-21T06:00:20;11.50;;;6.10;;
33347;SDS011;19707;51.158;17.124;2023-11-21T06:03:27;11.10;;;7.00;;
33347;SDS011;19707;51.158;17.124;2023-11-21T06:06:29;9.30;;;6.50;;
33347;SDS011;19707;51.158;17.124;2023-11-21T06:09:31;11.20;;;6.90;;
33347;SDS011;19707;51.158;17.124;2023-11-21T06:12:33;12.40;;;8.00;;
33347;SDS011;19707;51.158;17.124;2023-11-21T06:15:37;10.10;;;7.00;;
33347;SDS011;19707;51.158;17.124;2023-11-21T06:18:42;10.40;;;7.60;;
33347;SDS011;19707;51.158;17.124;2023-11-21T06:21:47;16.00;;;8.10;;
33347;SDS011;19707;51.158;17.124;2023-11-21T06:24:50;11.60;;;7.50;;
33347;SDS011;19707;51.158;17.124;2023-11-21T06:27:52;10.70;;;7.80;;
33347;SDS011;19707;51.158;17.124;2023-11-21T06:30:55;10.50;;;7.00;;
33347;SDS011;19707;51.158;17.124;2023-11-21T06:33:57;10.80;;;7.40;;
33347;SDS011;19707;51.158;17.124;2023-11-21T06:37:01;13.50;;;8.00;;
33347;SDS011;19707;51.158;17.124;2023-11-21T06:40:04;10.60;;;7.90;;
33347;SDS011;19707;51.158;17.124;2023-11-21T06:43:06;14.80;;;7.80;;
33347;SDS011;19707;51.158;17.124;2023-11-21T06:46:08;10.40;;;7.50;;
33347;SDS011;19707;51.158;17.124;2023-11-21T06:49:13;11.60;;;7.60;;
33347;SDS011;19707;51.158;17.124;2023-11-21T06:52:15;14.80;;;8.00;;
33347;SDS011;19707;51.158;17.124;2023-11-21T06:55:17;15.40;;;8.30;;
33347;SDS011;19707;51.158;17.124;2023-11-21T06:58:19;12.30;;;7.90;;
33347;SDS011;19707;51.158;17.124;2023-11-21T07:01:21;15.80;;;8.60;;
33347;SDS011;19707;51.158;17.124;2023-11-21T07:04:24;11.90;;;8.60;;
33347;SDS011;19707;51.158;17.124;2023-11-21T07:07:27;13.40;;;7.80;;
33347;SDS011;19707;51.158;17.124;2023-11-21T07:10:29;15.60;;;8.00;;
33347;SDS011;19707;51.158;17.124;2023-11-21T07:13:32;13.70;;;8.10;;
33347;SDS011;19707;51.158;17.124;2023-11-21T07:16:37;13.10;;;7.60;;
33347;SDS011;19707;51.158;17.124;2023-11-21T07:19:42;15.40;;;8.70;;
33347;SDS011;19707;51.158;17.124;2023-11-21T07:22:45;15.00;;;8.20;;
33347;SDS011;19707;51.158;17.124;2023-11-21T07:25:47;13.00;;;8.20;;
33347;SDS011;19707;51.158;17.124;2023-11-21T07:28:49;14.10;;;8.10;;
33347;SDS011;19707;51.158;17.124;2023-11-21T07:31:51;12.90;;;7.70;;
33347;SDS011;19707;51.158;17.124;2023-11-21T07:34:54;15.20;;;8.40;;
33347;SDS011;19707;51.158;17.124;2023-11-21T07:37:59;14.20;;;8.90;;
33347;SDS011;19707;51.158;17.124;2023-11-21T07:41:00;12.10;;;8.00;;
33347;SDS011;19707;51.158;17.124;2023-11-21T07:44:03;13.30;;;7.90;;
33347;SDS011;19707;51.158;17.124;2023-11-21T07:47:05;13.60;;;7.30;;
33347;SDS011;19707;51.158;17.124;2023-11-21T07:50:07;13.20;;;7.40;;
33347;SDS011;19707;51.158;17.124;2023-11-21T07:53:10;13.20;;;8.10;;
33347;SDS011;19707;51.158;17.124;2023-11-21T07:56:12;11.60;;;8.00;;
33347;SDS011;19707;51.158;17.124;2023-11-21T07:59:14;12.70;;;8.50;;
33347;SDS011;19707;51.158;17.124;2023-11-21T08:02:17;12.50;;;7.40;;
33347;SDS011;19707;51.158;17.124;2023-11-21T08:05:19;13.30;;;7.80;;
33347;SDS011;19707;51.158;17.124;2023-11-21T08:08:21;11.30;;;7.30;;
33347;SDS011;19707;51.158;17.124;2023-11-21T08:11:24;16.20;;;8.60;;
33347;SDS011;19707;51.158;17.124;2023-11-21T08:14:28;16.00;;;9.80;;
33347;SDS011;19707;51.158;17.124;2023-11-21T08:17:31;17.60;;;12.70;;
33347;SDS011;19707;51.158;17.124;2023-11-21T08:20:34;23.70;;;17.70;;
33347;SDS011;19707;51.158;17.124;2023-11-21T08:23:40;22.00;;;14.60;;
33347;SDS011;19707;51.158;17.124;2023-11-21T08:26:42;15.40;;;10.00;;
33347;SDS011;19707;51.158;17.124;2023-11-21T08:29:44;12.20;;;9.00;;
33347;SDS011;19707;51.158;17.124;2023-11-21T08:32:47;14.90;;;10.00;;
33347;SDS011;19707;51.158;17.124;2023-11-21T08:35:49;15.60;;;10.40;;
33347;SDS011;19707;51.158;17.124;2023-11-21T08:38:52;11.80;;;8.50;;
33347;SDS011;19707;51.158;17.124;2023-11-21T08:41:54;14.20;;;10.90;;
33347;SDS011;19707;51.158;17.124;2023-11-21T08:44:56;20.30;;;12.90;;
33347;SDS011;19707;51.158;17.124;2023-11-21T08:48:02;25.50;;;10.90;;
33347;SDS011;19707;51.158;17.124;2023-11-21T08:51:05;14.80;;;9.80;;
33347;SDS011;19707;51.158;17.124;2023-11-21T08:54:07;11.80;;;8.80;;
33347;SDS011;19707;51.158;17.124;2023-11-21T08:57:09;12.40;;;8.10;;
33347;SDS011;19707;51.158;17.124;2023-11-21T09:00:12;13.30;;;7.80;;
33347;SDS011;19707;51.158;17.124;2023-11-21T09:03:17;11.50;;;7.50;;
33347;SDS011;19707;51.158;17.124;2023-11-21T09:06:20;11.10;;;7.50;;
33347;SDS011;19707;51.158;17.124;2023-11-21T09:09:22;13.60;;;10.20;;
33347;SDS011;19707;51.158;17.124;2023-11-21T09:12:26;11.90;;;7.00;;
33347;SDS011;19707;51.158;17.124;2023-11-21T09:15:29;17.90;;;9.90;;
33347;SDS011;19707;51.158;17.124;2023-11-21T09:18:31;16.20;;;7.00;;
33347;SDS011;19707;51.158;17.124;2023-11-21T09:21:34;13.60;;;8.50;;
33347;SDS011;19707;51.158;17.124;2023-11-21T09:24:36;14.30;;;7.80;;
33347;SDS011;19707;51.158;17.124;2023-11-21T09:27:39;11.80;;;7.10;;
33347;SDS011;19707;51.158;17.124;2023-11-21T09:30:41;9.30;;;6.90;;
33347;SDS011;19707;51.158;17.124;2023-11-21T09:33:44;10.90;;;6.60;;
33347;SDS011;19707;51.158;17.124;2023-11-21T09:36:46;9.30;;;6.60;;
33347;SDS011;19707;51.158;17.124;2023-11-21T09:39:48;8.40;;;6.10;;
33347;SDS011;19707;51.158;17.124;2023-11-21T09:42:54;8.20;;;6.00;;
33347;SDS011;19707;51.158;17.124;2023-11-21T09:46:01;9.40;;;6.20;;
33347;SDS011;19707;51.158;17.124;2023-11-21T09:49:04;9.50;;;5.90;;
33347;SDS011;19707;51.158;17.124;2023-11-21T09:52:07;9.50;;;6.30;;
33347;SDS011;19707;51.158;17.124;2023-11-21T09:55:10;8.60;;;5.90;;
33347;SDS011;19707;51.158;17.124;2023-11-21T09:58:17;9.70;;;5.40;;
33347;SDS011;19707;51.158;17.124;2023-11-21T10:01:20;10.80;;;6.60;;
33347;SDS011;19707;51.158;17.124;2023-11-21T10:04:23;20.50;;;15.50;;
33347;SDS011;19707;51.158;17.124;2023-11-21T10:07:25;21.20;;;14.20;;
33347;SDS011;19707;51.158;17.124;2023-11-21T10:10:29;22.50;;;16.30;;
33347;SDS011;19707;51.158;17.124;2023-11-21T10:13:32;24.50;;;16.20;;
33347;SDS011;19707;51.158;17.124;2023-11-21T10:16:37;26.60;;;17.20;;
33347;SDS011;19707;51.158;17.124;2023-11-21T10:19:40;30.10;;;19.40;;
33347;SDS011;19707;51.158;17.124;2023-11-21T10:22:43;27.80;;;17.40;;
33347;SDS011;19707;51.158;17.124;2023-11-21T10:25:45;25.70;;;17.40;;
33347;SDS011;19707;51.158;17.124;2023-11-21T10:31:59;28.30;;;17.60;;
33347;SDS011;19707;51.158;17.124;2023-11-21T10:35:02;28.70;;;18.70;;
33347;SDS011;19707;51.158;17.124;2023-11-21T10:38:08;31.60;;;19.50;;
33347;SDS011;19707;51.158;17.124;2023-11-21T10:41:15;30.90;;;21.60;;
33347;SDS011;19707;51.158;17.124;2023-11-21T10:44:17;36.20;;;21.50;;
33347;SDS011;19707;51.158;17.124;2023-11-21T10:47:24;30.30;;;21.20;;
33347;SDS011;19707;51.158;17.124;2023-11-21T10:50:27;32.80;;;22.00;;
33347;SDS011;19707;51.158;17.124;2023-11-21T10:53:30;29.20;;;20.80;;
33347;SDS011;19707;51.158;17.124;2023-11-21T10:56:33;31.40;;;21.80;;
33347;SDS011;19707;51.158;17.124;2023-11-21T10:59:37;36.70;;;23.80;;
33347;SDS011;19707;51.158;17.124;2023-11-21T11:02:40;36.00;;;23.00;;
33347;SDS011;19707;51.158;17.124;2023-11-21T11:05:43;34.10;;;22.50;;
33347;SDS011;19707;51.158;17.124;2023-11-21T11:08:52;34.50;;;22.90;;
33347;SDS011;19707;51.158;17.124;2023-11-21T11:11:55;32.40;;;21.90;;
33347;SDS011;19707;51.158;17.124;2023-11-21T11:14:58;32.40;;;22.60;;
33347;SDS011;19707;51.158;17.124;2023-11-21T11:18:00;42.60;;;24.40;;
33347;SDS011;19707;51.158;17.124;2023-11-21T11:21:46;36.10;;;23.60;;
33347;SDS011;19707;51.158;17.124;2023-11-21T11:28:20;31.70;;;21.50;;
33347;SDS011;19707;51.158;17.124;2023-11-21T11:38:46;35.10;;;22.10;;
33347;SDS011;19707;51.158;17.124;2023-11-21T11:41:51;35.20;;;21.90;;
33347;SDS011;19707;51.158;17.124;2023-11-21T11:44:54;32.10;;;20.60;;
33347;SDS011;19707;51.158;17.124;2023-11-21T11:48:00;37.10;;;21.20;;
33347;SDS011;19707;51.158;17.124;2023-11-21T11:51:03;25.50;;;17.00;;
33347;SDS011;19707;51.158;17.124;2023-11-21T11:54:06;29.70;;;20.20;;
33347;SDS011;19707;51.158;17.124;2023-11-21T11:57:08;35.40;;;22.20;;
33347;SDS011;19707;51.158;17.124;2023-11-21T12:03:18;30.70;;;20.40;;
33347;SDS011;19707;51.158;17.124;2023-11-21T12:06:26;32.20;;;19.70;;
33347;SDS011;19707;51.158;17.124;2023-11-21T12:09:35;30.20;;;19.40;;
33347;SDS011;19707;51.158;17.124;2023-11-21T12:12:41;31.50;;;19.70;;
33347;SDS011;19707;51.158;17.124;2023-11-21T12:15:44;28.30;;;17.10;;
33347;SDS011;19707;51.158;17.124;2023-11-21T12:18:47;26.50;;;18.00;;
33347;SDS011;19707;51.158;17.124;2023-11-21T12:21:50;25.10;;;17.70;;
33347;SDS011;19707;51.158;17.124;2023-11-21T12:24:53;24.50;;;16.00;;
33347;SDS011;19707;51.158;17.124;2023-11-21T12:27:56;19.70;;;14.80;;
33347;SDS011;19707;51.158;17.124;2023-11-21T12:30:59;23.30;;;15.60;;
33347;SDS011;19707;51.158;17.124;2023-11-21T12:34:01;20.30;;;14.80;;
33347;SDS011;19707;51.158;17.124;2023-11-21T12:37:04;20.80;;;13.70;;
33347;SDS011;19707;51.158;17.124;2023-11-21T12:40:06;20.90;;;14.10;;
33347;SDS011;19707;51.158;17.124;2023-11-21T12:43:10;19.30;;;13.30;;
33347;SDS011;19707;51.158;17.124;2023-11-21T12:46:12;12.90;;;14.10;;
33347;SDS011;19707;51.158;17.124;2023-11-21T12:49:19;16.30;;;11.30;;
33347;SDS011;19707;51.158;17.124;2023-11-21T12:52:21;19.10;;;13.40;;
33347;SDS011;19707;51.158;17.124;2023-11-21T12:55:23;22.20;;;12.20;;
33347;SDS011;19707;51.158;17.124;2023-11-21T12:58:25;19.60;;;13.40;;
33347;SDS011;19707;51.158;17.124;2023-11-21T13:01:27;21.80;;;15.70;;
33347;SDS011;19707;51.158;17.124;2023-11-21T13:04:32;24.30;;;18.10;;
33347;SDS011;19707;51.158;17.124;2023-11-21T13:07:42;21.90;;;16.20;;
33347;SDS011;19707;51.158;17.124;2023-11-21T13:10:51;24.80;;;16.30;;
33347;SDS011;19707;51.158;17.124;2023-11-21T13:13:55;23.00;;;15.10;;
33347;SDS011;19707;51.158;17.124;2023-11-21T13:16:58;18.00;;;14.50;;
33347;SDS011;19707;51.158;17.124;2023-11-21T13:20:00;22.40;;;15.30;;
33347;SDS011;19707;51.158;17.124;2023-11-21T13:23:07;22.20;;;16.70;;
33347;SDS011;19707;51.158;17.124;2023-11-21T13:26:10;22.80;;;17.60;;
33347;SDS011;19707;51.158;17.124;2023-11-21T13:29:14;22.60;;;15.40;;
33347;SDS011;19707;51.158;17.124;2023-11-21T13:32:17;21.50;;;17.40;;
33347;SDS011;19707;51.158;17.124;2023-11-21T13:35:22;21.80;;;14.00;;
33347;SDS011;19707;51.158;17.124;2023-11-21T13:38:34;24.00;;;16.40;;
33347;SDS011;19707;51.158;17.124;2023-11-21T13:41:37;20.30;;;16.30;;
33347;SDS011;19707;51.158;17.124;2023-11-21T13:44:39;21.50;;;16.40;;
33347;SDS011;19707;51.158;17.124;2023-11-21T13:47:45;17.50;;;14.00;;
33347;SDS011;19707;51.158;17.124;2023-11-21T13:50:47;17.90;;;14.50;;
33347;SDS011;19707;51.158;17.124;2023-11-21T13:54:08;15.70;;;11.80;;
33347;SDS011;19707;51.158;17.124;2023-11-21T13:57:11;16.70;;;13.30;;
33347;SDS011;19707;51.158;17.124;2023-11-21T14:00:13;18.50;;;12.90;;
33347;SDS011;19707;51.158;17.124;2023-11-21T14:03:35;20.90;;;16.10;;
33347;SDS011;19707;51.158;17.124;2023-11-21T14:06:42;21.60;;;16.90;;
33347;SDS011;19707;51.158;17.124;2023-11-21T14:09:51;20.90;;;16.30;;
33347;SDS011;19707;51.158;17.124;2023-11-21T14:12:54;20.50;;;15.90;;
33347;SDS011;19707;51.158;17.124;2023-11-21T14:15:56;19.70;;;15.30;;
33347;SDS011;19707;51.158;17.124;2023-11-21T14:19:02;20.50;;;15.50;;
33347;SDS011;19707;51.158;17.124;2023-11-21T14:22:17;22.30;;;15.70;;
33347;SDS011;19707;51.158;17.124;2023-11-21T14:25:20;25.40;;;18.80;;
33347;SDS011;19707;51.158;17.124;2023-11-21T14:28:24;25.40;;;17.60;;
33347;SDS011;19707;51.158;17.124;2023-11-21T14:31:27;24.30;;;16.20;;
33347;SDS011;19707;51.158;17.124;2023-11-21T14:34:32;18.80;;;13.80;;
33347;SDS011;19707;51.158;17.124;2023-11-21T14:37:34;20.50;;;13.90;;
33347;SDS011;19707;51.158;17.124;2023-11-21T14:40:37;19.00;;;12.50;;
33347;SDS011;19707;51.158;17.124;2023-11-21T14:43:39;22.10;;;14.60;;
33347;SDS011;19707;51.158;17.124;2023-11-21T14:46:43;25.60;;;18.80;;
33347;SDS011;19707;51.158;17.124;2023-11-21T14:49:50;20.70;;;14.40;;
33347;SDS011;19707;51.158;17.124;2023-11-21T14:56:00;25.60;;;18.00;;
33347;SDS011;19707;51.158;17.124;2023-11-21T14:59:05;25.10;;;16.70;;
33347;SDS011;19707;51.158;17.124;2023-11-21T15:02:14;28.40;;;18.00;;
33347;SDS011;19707;51.158;17.124;2023-11-21T15:05:17;31.70;;;21.00;;
33347;SDS011;19707;51.158;17.124;2023-11-21T15:08:20;35.80;;;23.40;;
33347;SDS011;19707;51.158;17.124;2023-11-21T15:11:28;36.20;;;23.10;;
33347;SDS011;19707;51.158;17.124;2023-11-21T15:14:33;28.40;;;22.00;;
33347;SDS011;19707;51.158;17.124;2023-11-21T15:17:38;33.80;;;26.90;;
33347;SDS011;19707;51.158;17.124;2023-11-21T15:20:41;34.60;;;24.80;;
33347;SDS011;19707;51.158;17.124;2023-11-21T15:23:44;35.70;;;27.40;;
33347;SDS011;19707;51.158;17.124;2023-11-21T15:26:46;28.80;;;20.70;;
33347;SDS011;19707;51.158;17.124;2023-11-21T15:29:49;27.50;;;20.70;;
33347;SDS011;19707;51.158;17.124;2023-11-21T15:32:51;32.40;;;21.60;;
33347;SDS011;19707;51.158;17.124;2023-11-21T15:35:55;29.00;;;19.10;;
33347;SDS011;19707;51.158;17.124;2023-11-21T15:38:57;27.00;;;18.50;;
33347;SDS011;19707;51.158;17.124;2023-11-21T15:41:59;22.30;;;16.70;;
33347;SDS011;19707;51.158;17.124;2023-11-21T15:45:02;29.80;;;20.20;;
33347;SDS011;19707;51.158;17.124;2023-11-21T15:48:09;27.40;;;19.00;;
33347;SDS011;19707;51.158;17.124;2023-11-21T15:51:11;30.20;;;19.50;;
33347;SDS011;19707;51.158;17.124;2023-11-21T15:54:14;27.40;;;18.30;;
33347;SDS011;19707;51.158;17.124;2023-11-21T15:57:16;26.80;;;19.60;;
33347;SDS011;19707;51.158;17.124;2023-11-21T16:00:20;29.90;;;21.20;;
33347;SDS011;19707;51.158;17.124;2023-11-21T16:03:24;29.30;;;19.30;;
33347;SDS011;19707;51.158;17.124;2023-11-21T16:06:27;25.30;;;18.00;;
33347;SDS011;19707;51.158;17.124;2023-11-21T16:09:30;34.60;;;22.70;;
33347;SDS011;19707;51.158;17.124;2023-11-21T16:12:32;25.30;;;17.90;;
33347;SDS011;19707;51.158;17.124;2023-11-21T16:15:34;22.70;;;17.40;;
33347;SDS011;19707;51.158;17.124;2023-11-21T16:18:36;26.30;;;17.70;;
33347;SDS011;19707;51.158;17.124;2023-11-21T16:21:38;26.80;;;19.70;;
33347;SDS011;19707;51.158;17.124;2023-11-21T16:24:41;24.50;;;16.70;;
33347;SDS011;19707;51.158;17.124;2023-11-21T16:27:42;29.70;;;21.60;;
33347;SDS011;19707;51.158;17.124;2023-11-21T16:30:45;25.50;;;18.40;;
33347;SDS011;19707;51.158;17.124;2023-11-21T16:33:47;29.70;;;20.60;;
33347;SDS011;19707;51.158;17.124;2023-11-21T16:36:49;23.80;;;17.70;;
33347;SDS011;19707;51.158;17.124;2023-11-21T16:39:51;26.10;;;19.70;;
33347;SDS011;19707;51.158;17.124;2023-11-21T16:42:54;23.90;;;18.00;;
33347;SDS011;19707;51.158;17.124;2023-11-21T16:45:56;26.90;;;18.00;;
33347;SDS011;19707;51.158;17.124;2023-11-21T16:48:58;29.30;;;20.70;;
33347;SDS011;19707;51.158;17.124;2023-11-21T16:52:01;27.30;;;18.50;;
33347;SDS011;19707;51.158;17.124;2023-11-21T16:55:04;26.10;;;17.90;;
33347;SDS011;19707;51.158;17.124;2023-11-21T16:58:06;29.50;;;19.70;;
33347;SDS011;19707;51.158;17.124;2023-11-21T17:01:09;32.10;;;20.60;;
33347;SDS011;19707;51.158;17.124;2023-11-21T17:04:15;34.10;;;23.30;;
33347;SDS011;19707;51.158;17.124;2023-11-21T17:07:20;33.60;;;21.50;;
33347;SDS011;19707;51.158;17.124;2023-11-21T17:10:23;26.70;;;19.00;;
33347;SDS011;19707;51.158;17.124;2023-11-21T17:13:25;29.50;;;20.50;;
33347;SDS011;19707;51.158;17.124;2023-11-21T17:16:28;31.90;;;22.10;;
33347;SDS011;19707;51.158;17.124;2023-11-21T17:19:30;32.00;;;20.40;;
33347;SDS011;19707;51.158;17.124;2023-11-21T17:22:35;31.10;;;21.90;;
33347;SDS011;19707;51.158;17.124;2023-11-21T17:25:38;31.80;;;21.60;;
33347;SDS011;19707;51.158;17.124;2023-11-21T17:28:41;29.60;;;20.80;;
33347;SDS011;19707;51.158;17.124;2023-11-21T17:31:44;31.80;;;22.80;;
33347;SDS011;19707;51.158;17.124;2023-11-21T17:34:46;35.30;;;24.40;;
33347;SDS011;19707;51.158;17.124;2023-11-21T17:37:49;39.60;;;26.50;;
33347;SDS011;19707;51.158;17.124;2023-11-21T17:40:52;34.80;;;24.30;;
33347;SDS011;19707;51.158;17.124;2023-11-21T17:43:54;38.00;;;26.00;;
33347;SDS011;19707;51.158;17.124;2023-11-21T17:46:55;50.80;;;31.60;;
33347;SDS011;19707;51.158;17.124;2023-11-21T17:49:57;46.40;;;29.90;;
33347;SDS011;19707;51.158;17.124;2023-11-21T17:53:00;44.00;;;28.10;;
33347;SDS011;19707;51.158;17.124;2023-11-21T17:56:01;43.60;;;28.60;;
33347;SDS011;19707;51.158;17.124;2023-11-21T17:59:03;41.20;;;27.80;;
33347;SDS011;19707;51.158;17.124;2023-11-21T18:02:05;38.30;;;26.50;;
33347;SDS011;19707;51.158;17.124;2023-11-21T18:05:08;39.60;;;26.00;;
33347;SDS011;19707;51.158;17.124;2023-11-21T18:08:14;39.80;;;26.80;;
33347;SDS011;19707;51.158;17.124;2023-11-21T18:11:16;46.70;;;28.30;;
33347;SDS011;19707;51.158;17.124;2023-11-21T18:14:18;45.60;;;28.90;;
33347;SDS011;19707;51.158;17.124;2023-11-21T18:17:19;46.80;;;29.10;;
33347;SDS011;19707;51.158;17.124;2023-11-21T18:20:22;52.50;;;32.00;;
33347;SDS011;19707;51.158;17.124;2023-11-21T18:23:24;44.10;;;28.50;;
33347;SDS011;19707;51.158;17.124;2023-11-21T18:26:26;44.80;;;27.50;;